Time;durP1;ratioP1;P1;durP2;ratioP2;P2;SDS_P1;SDS_P2;PMS_P1;PMS_P2;Temp;Humidity;BMP_temperature;BMP_pressure;BME280_temperature;BME280_humidity;BME280_pressure;Samples;Min_cycle;Max_cycle;Signal;HPM_P1;HPM_P2
2022/12/01 00:00:34;;;;;;;27.17;24.93;;;8.30;30.10;;;;;;5088585;28;20190;-53
2022/12/01 00:03:00;;;;;;;26.97;24.87;;;8.40;30.00;;;;;;5087333;28;20186;-52
2022/12/01 00:05:26;;;;;;;25.80;23.70;;;8.40;30.00;;;;;;5087961;28;20263;-52
2022/12/01 00:07:51;;;;;;;25.57;23.47;;;8.50;30.00;;;;;;5086623;28;20232;-54
2022/12/01 00:10:26;;;;;;;26.10;23.90;;;8.50;29.60;;;;;;5089028;28;20178;-55
2022/12/01 00:12:57;;;;;;;26.23;24.23;;;8.30;30.30;;;;;;5088844;28;20177;-55
2022/12/01 00:15:29;;;;;;;27.83;25.43;;;8.30;30.70;;;;;;5088746;28;20417;-54
2022/12/01 00:17:55;;;;;;;28.00;25.77;;;8.30;30.70;;;;;;5087004;28;20417;-56
2022/12/01 00:20:20;;;;;;;27.27;24.73;;;8.40;30.40;;;;;;5087119;28;20480;-54
2022/12/01 00:22:47;;;;;;;27.20;24.87;;;8.50;30.00;;;;;;5084924;28;20416;-53
2022/12/01 00:25:15;;;;;;;27.77;25.47;;;8.40;30.00;;;;;;5084662;28;20258;-55
2022/12/01 00:27:41;;;;;;;27.23;24.93;;;8.40;30.20;;;;;;5085249;28;20525;-53
2022/12/01 00:30:10;;;;;;;27.80;25.20;;;8.50;30.00;;;;;;5086348;28;20421;-53
2022/12/01 00:32:36;;;;;;;28.03;25.53;;;8.40;30.70;;;;;;5085515;28;20456;-56
2022/12/01 00:35:03;;;;;;;26.80;24.50;;;8.50;30.60;;;;;;5084699;28;20949;-52
2022/12/01 00:37:30;;;;;;;26.93;24.60;;;8.40;30.00;;;;;;5085540;28;20423;-50
2022/12/01 00:39:57;;;;;;;28.27;25.97;;;8.50;30.20;;;;;;5082755;28;20421;-53
2022/12/01 00:42:23;;;;;;;28.40;26.00;;;8.50;30.00;;;;;;5086189;28;20471;-51
2022/12/01 00:44:48;;;;;;;27.63;25.33;;;8.50;29.60;;;;;;5084300;28;20492;-51
2022/12/01 00:47:14;;;;;;;28.13;25.60;;;8.50;29.90;;;;;;5085415;28;20261;-52
2022/12/01 00:49:40;;;;;;;27.70;25.37;;;8.60;29.60;;;;;;5084092;28;20189;-54
2022/12/01 00:52:06;;;;;;;28.67;26.17;;;8.60;29.40;;;;;;5083681;28;20409;-56
2022/12/01 00:54:31;;;;;;;26.07;23.87;;;8.60;29.50;;;;;;5083920;28;20726;-56
2022/12/01 00:56:58;;;;;;;27.30;25.00;;;8.70;29.40;;;;;;5084033;28;20210;-56
2022/12/01 00:59:24;;;;;;;26.70;24.53;;;8.70;29.30;;;;;;5084113;28;20236;-56
2022/12/01 01:01:50;;;;;;;29.13;26.83;;;8.70;28.90;;;;;;5084280;28;20412;-53
2022/12/01 01:04:15;;;;;;;28.80;26.30;;;8.60;29.30;;;;;;5084550;28;20314;-53
2022/12/01 01:06:42;;;;;;;26.87;24.67;;;8.60;29.50;;;;;;5083541;28;20182;-54
2022/12/01 01:09:09;;;;;;;27.47;25.17;;;8.60;29.90;;;;;;5082645;28;20171;-54
2022/12/01 01:11:35;;;;;;;27.00;24.60;;;8.70;29.40;;;;;;5084249;28;20420;-54
2022/12/01 01:14:01;;;;;;;27.33;25.13;;;8.70;29.30;;;;;;5084059;28;20458;-54
2022/12/01 01:16:27;;;;;;;28.00;25.83;;;8.60;29.20;;;;;;5083041;28;20412;-53
2022/12/01 01:18:52;;;;;;;27.30;25.20;;;8.70;29.20;;;;;;5083201;28;20382;-54
2022/12/01 01:21:20;;;;;;;27.00;24.70;;;8.70;29.70;;;;;;5084427;28;20550;-55
2022/12/01 01:23:47;;;;;;;26.53;24.30;;;8.70;28.90;;;;;;5082875;28;20193;-54
2022/12/01 01:26:17;;;;;;;27.73;25.53;;;8.50;29.50;;;;;;5083124;28;20470;-56
2022/12/01 01:28:43;;;;;;;26.73;24.50;;;8.60;28.60;;;;;;5082923;28;20417;-54
2022/12/01 01:31:11;;;;;;;27.50;25.30;;;8.50;28.80;;;;;;5082711;28;20419;-51
2022/12/01 01:33:37;;;;;;;27.20;24.97;;;8.40;28.90;;;;;;5082783;28;20478;-53
2022/12/01 01:36:03;;;;;;;26.37;24.37;;;8.30;29.20;;;;;;5082999;28;20416;-51
2022/12/01 01:38:30;;;;;;;24.83;22.77;;;8.20;29.00;;;;;;5081469;28;20186;-53
2022/12/01 01:40:55;;;;;;;25.47;23.47;;;8.30;29.10;;;;;;5080859;28;20416;-53
2022/12/01 01:43:43;;;;;;;27.60;25.23;;;8.40;29.10;;;;;;5081498;28;20785;-53
2022/12/01 01:46:17;;;;;;;25.70;23.60;;;8.40;28.40;;;;;;5080820;28;20324;-52
2022/12/01 01:49:13;;;;;;;26.60;24.50;;;8.50;28.70;;;;;;5082241;28;20869;-52
2022/12/01 01:51:47;;;;;;;25.47;23.47;;;8.60;28.60;;;;;;5078151;28;20417;-49
2022/12/01 01:54:30;;;;;;;25.47;23.23;;;8.40;28.30;;;;;;5082069;28;20416;-48
2022/12/01 01:56:58;;;;;;;25.70;23.60;;;8.50;28.20;;;;;;5080917;28;20484;-51
2022/12/01 01:59:28;;;;;;;24.33;22.43;;;8.50;28.10;;;;;;5081504;28;20409;-48
2022/12/01 02:02:10;;;;;;;27.47;25.37;;;8.50;28.10;;;;;;5081602;28;20901;-49
2022/12/01 02:04:39;;;;;;;27.27;25.17;;;8.50;27.70;;;;;;5081101;28;20449;-51
2022/12/01 02:07:10;;;;;;;23.73;21.93;;;8.10;28.80;;;;;;5080144;28;20417;-53
2022/12/01 02:09:35;;;;;;;27.40;25.20;;;8.10;28.90;;;;;;5079684;28;20427;-51
2022/12/01 02:12:30;;;;;;;24.67;22.67;;;8.20;29.00;;;;;;5080366;28;20404;-53
2022/12/01 02:15:21;;;;;;;26.20;24.10;;;8.20;28.50;;;;;;5079706;28;20524;-52
2022/12/01 02:17:56;;;;;;;27.93;25.80;;;8.30;28.70;;;;;;5080716;28;20849;-51
2022/12/01 02:20:44;;;;;;;25.93;23.93;;;8.40;28.50;;;;;;5082174;28;20408;-53
2022/12/01 02:23:19;;;;;;;25.77;23.87;;;8.40;28.50;;;;;;5081142;28;20421;-52
2022/12/01 02:25:57;;;;;;;25.00;23.00;;;8.50;28.30;;;;;;5080487;28;20483;-55
2022/12/01 02:28:29;;;;;;;25.87;23.80;;;8.30;28.30;;;;;;5080060;28;20794;-55
2022/12/01 02:31:06;;;;;;;25.10;22.93;;;8.40;28.50;;;;;;5081907;28;20417;-50
2022/12/01 02:33:39;;;;;;;25.77;23.47;;;8.40;28.40;;;;;;5079360;28;20489;-50
2022/12/01 02:36:26;;;;;;;25.80;23.77;;;8.50;28.20;;;;;;5081217;28;20496;-49
2022/12/01 02:39:16;;;;;;;23.20;21.40;;;8.60;28.10;;;;;;5079895;28;20427;-50
2022/12/01 02:45:28;;;;;;;23.20;21.47;;;8.60;27.10;;;;;;5081617;28;20485;-52
2022/12/01 02:47:58;;;;;;;24.63;22.77;;;8.60;27.60;;;;;;5079576;28;20429;-51
2022/12/01 02:50:27;;;;;;;24.03;22.23;;;8.50;27.50;;;;;;5080481;28;20892;-50
2022/12/01 02:52:53;;;;;;;24.90;23.00;;;8.50;27.60;;;;;;5080480;28;20408;-52
2022/12/01 02:55:19;;;;;;;24.63;22.83;;;8.40;28.40;;;;;;5078857;28;20405;-53
2022/12/01 02:57:45;;;;;;;25.77;23.77;;;8.40;27.40;;;;;;5079664;28;20427;-53
2022/12/01 03:00:12;;;;;;;26.67;24.47;;;8.20;27.70;;;;;;5080629;28;20421;-53
2022/12/01 03:02:42;;;;;;;25.67;23.73;;;8.20;27.90;;;;;;5081162;28;20194;-52
2022/12/01 03:05:50;;;;;;;25.67;23.67;;;8.20;28.20;;;;;;5083241;28;20831;-50
2022/12/01 03:08:46;;;;;;;26.57;24.50;;;8.10;27.90;;;;;;5070453;28;20416;-48
2022/12/01 03:11:25;;;;;;;26.03;23.93;;;8.20;28.00;;;;;;5084475;28;20467;-50
2022/12/01 03:14:01;;;;;;;26.43;24.33;;;8.10;28.00;;;;;;5083350;28;20419;-52
2022/12/01 03:16:50;;;;;;;26.20;24.13;;;8.10;27.80;;;;;;5102352;28;20957;-53
2022/12/01 03:19:31;;;;;;;25.33;23.23;;;8.10;28.00;;;;;;5084123;28;20569;-53
2022/12/01 03:22:07;;;;;;;27.40;25.30;;;8.20;28.00;;;;;;5083841;28;20468;-56
2022/12/01 03:24:35;;;;;;;25.57;23.73;;;8.30;27.70;;;;;;5083923;28;20863;-55
2022/12/01 03:27:03;;;;;;;26.17;24.27;;;8.30;27.70;;;;;;5083927;28;20414;-55
2022/12/01 03:29:50;;;;;;;26.63;24.53;;;8.30;27.50;;;;;;5084181;28;20493;-55
2022/12/01 03:32:22;;;;;;;25.03;23.03;;;8.30;27.30;;;;;;5084308;28;20418;-54
2022/12/01 03:35:17;;;;;;;26.20;24.17;;;8.20;27.80;;;;;;5083984;28;20408;-55
2022/12/01 03:37:54;;;;;;;25.93;24.00;;;7.90;28.40;;;;;;5069764;28;20794;-52
2022/12/01 03:40:26;;;;;;;23.97;22.17;;;7.70;29.20;;;;;;5084264;28;20419;-53
2022/12/01 03:43:03;;;;;;;24.43;22.53;;;7.80;28.70;;;;;;5082968;28;20451;-53
2022/12/01 03:45:34;;;;;;;25.77;23.80;;;7.90;28.50;;;;;;5084435;28;20598;-54
2022/12/01 03:48:00;;;;;;;26.20;24.23;;;7.90;28.30;;;;;;5084545;28;20412;-55
2022/12/01 03:50:48;;;;;;;26.53;24.53;;;8.00;28.20;;;;;;5102173;28;20966;-55
2022/12/01 03:53:20;;;;;;;25.43;23.53;;;8.00;27.90;;;;;;5084091;28;20174;-51
2022/12/01 03:55:53;;;;;;;25.63;23.70;;;7.90;28.40;;;;;;5083738;28;20412;-53
2022/12/01 03:58:29;;;;;;;25.50;23.60;;;8.00;28.50;;;;;;5086132;28;20418;-53
2022/12/01 04:00:56;;;;;;;28.07;25.77;;;8.10;28.50;;;;;;5088229;28;20779;-55
2022/12/01 04:03:25;;;;;;;25.90;24.00;;;8.10;28.10;;;;;;5087034;28;20827;-53
2022/12/01 04:05:51;;;;;;;26.70;24.60;;;8.00;28.10;;;;;;5087858;28;20455;-54
2022/12/01 04:08:17;;;;;;;26.10;23.83;;;7.90;28.60;;;;;;5088836;28;20425;-54
2022/12/01 04:10:42;;;;;;;25.80;23.80;;;7.80;28.50;;;;;;5088247;28;20938;-54
2022/12/01 04:13:15;;;;;;;27.40;25.40;;;7.90;28.30;;;;;;5086544;28;20410;-55
2022/12/01 04:15:42;;;;;;;26.37;24.50;;;8.10;28.10;;;;;;5088369;28;20169;-52
2022/12/01 04:18:08;;;;;;;27.37;25.20;;;8.20;27.60;;;;;;5087365;28;20418;-54
2022/12/01 04:20:34;;;;;;;24.97;23.17;;;8.30;27.60;;;;;;5088310;28;20823;-54
2022/12/01 04:22:59;;;;;;;26.97;24.97;;;8.30;27.50;;;;;;5106560;28;20182;-55
2022/12/01 04:25:25;;;;;;;26.90;24.80;;;8.40;27.80;;;;;;5088609;28;20205;-53
2022/12/01 04:27:50;;;;;;;26.87;24.83;;;8.60;27.10;;;;;;5088755;28;20520;-54
2022/12/01 04:30:17;;;;;;;26.40;24.47;;;8.50;26.80;;;;;;5089872;28;20212;-54
2022/12/01 04:32:43;;;;;;;26.37;24.23;;;8.60;26.90;;;;;;5089883;28;20547;-53
2022/12/01 04:35:10;;;;;;;25.27;23.30;;;8.70;26.50;;;;;;5088923;28;20479;-54
2022/12/01 04:37:36;;;;;;;24.47;22.67;;;8.40;27.00;;;;;;5089072;28;20412;-55
2022/12/01 04:40:02;;;;;;;27.03;24.90;;;8.20;28.20;;;;;;5089457;28;20423;-53
2022/12/01 04:42:29;;;;;;;27.20;25.03;;;8.30;27.70;;;;;;5107967;28;20435;-53
2022/12/01 04:44:54;;;;;;;25.13;23.17;;;8.40;27.20;;;;;;5090412;28;20524;-53
2022/12/01 04:47:20;;;;;;;27.23;25.03;;;8.50;27.00;;;;;;5093138;28;20412;-55
2022/12/01 04:49:45;;;;;;;25.57;23.60;;;8.40;26.50;;;;;;5091852;28;20181;-55
2022/12/01 04:52:11;;;;;;;24.57;22.67;;;8.20;27.00;;;;;;5092571;28;20178;-54
2022/12/01 04:54:36;;;;;;;25.17;23.30;;;8.10;27.70;;;;;;5091185;28;20310;-55
2022/12/01 04:57:02;;;;;;;26.27;24.20;;;8.20;27.40;;;;;;5092366;28;20209;-49
2022/12/01 04:59:28;;;;;;;25.63;23.73;;;8.30;27.80;;;;;;5093000;28;20180;-51
2022/12/01 05:01:54;;;;;;;24.57;22.70;;;8.10;27.40;;;;;;5092740;28;20638;-49
2022/12/01 05:04:19;;;;;;;26.73;24.67;;;8.10;27.50;;;;;;5091741;28;20247;-53
2022/12/01 05:06:45;;;;;;;27.57;25.47;;;8.20;27.30;;;;;;5092901;28;20541;-50
2022/12/01 05:09:15;;;;;;;27.23;25.13;;;8.30;26.90;;;;;;5088553;28;20174;-54
2022/12/01 05:11:41;;;;;;;24.90;23.10;;;8.40;26.80;;;;;;5092097;28;20253;-51
2022/12/01 05:14:07;;;;;;;27.00;24.77;;;8.40;26.80;;;;;;5085628;28;20535;-61
2022/12/01 05:16:32;;;;;;;27.67;25.37;;;8.50;26.80;;;;;;5081564;28;20456;-59
2022/12/01 05:21:50;;;;;;;27.13;25.03;;;8.50;28.00;;;;;;5075104;28;20189;-59
2022/12/01 05:24:18;;;;;;;25.67;23.63;;;8.40;26.80;;;;;;5092136;28;20451;-60
2022/12/01 05:26:43;;;;;;;28.07;25.70;;;8.50;27.10;;;;;;5087280;28;21351;-59
2022/12/01 05:29:10;;;;;;;27.43;25.37;;;8.50;26.70;;;;;;5082429;28;20454;-59
2022/12/01 05:31:38;;;;;;;27.63;25.43;;;8.50;26.60;;;;;;5090489;28;20412;-59
2022/12/01 05:34:04;;;;;;;27.47;25.37;;;8.50;26.60;;;;;;5091386;28;20421;-58
2022/12/01 05:36:30;;;;;;;28.70;26.60;;;8.50;26.60;;;;;;5089572;28;20419;-58
2022/12/01 05:38:56;;;;;;;26.27;24.27;;;8.50;26.50;;;;;;5095729;28;20438;-58
2022/12/01 05:41:21;;;;;;;25.00;23.10;;;8.60;26.70;;;;;;5094341;28;20412;-52
2022/12/01 05:43:47;;;;;;;27.33;25.13;;;8.60;26.80;;;;;;5092991;28;20194;-52
2022/12/01 05:46:12;;;;;;;27.00;24.90;;;8.40;27.50;;;;;;5095781;28;20170;-52
2022/12/01 05:48:38;;;;;;;28.17;25.73;;;8.40;27.40;;;;;;5094332;28;20205;-51
2022/12/01 05:51:12;;;;;;;28.60;25.90;;;8.40;26.80;;;;;;5094038;28;20277;-54
2022/12/01 05:53:38;;;;;;;26.47;24.47;;;8.50;26.60;;;;;;5094058;28;20163;-55
2022/12/01 05:56:04;;;;;;;28.17;25.87;;;8.40;26.60;;;;;;5094427;28;20410;-53
2022/12/01 05:58:30;;;;;;;29.07;26.87;;;8.40;26.50;;;;;;5093900;28;20226;-54
2022/12/01 06:00:55;;;;;;;28.10;25.80;;;8.30;27.50;;;;;;5094032;28;20507;-54
2022/12/01 06:03:21;;;;;;;28.53;26.23;;;8.20;27.30;;;;;;5095450;28;20174;-55
2022/12/01 06:05:47;;;;;;;29.23;26.93;;;8.40;27.10;;;;;;5094232;28;20212;-54
2022/12/01 06:08:12;;;;;;;29.93;27.63;;;8.40;27.20;;;;;;5092775;28;20174;-54
2022/12/01 06:10:38;;;;;;;27.60;25.40;;;8.40;26.70;;;;;;5105776;28;20267;-56
2022/12/01 06:13:03;;;;;;;29.90;27.30;;;8.40;26.80;;;;;;5102066;28;20174;-58
2022/12/01 06:15:29;;;;;;;29.30;26.97;;;8.40;27.00;;;;;;5100907;28;20174;-58
2022/12/01 06:17:58;;;;;;;29.10;26.77;;;8.40;26.70;;;;;;5101590;28;20178;-59
2022/12/01 06:20:24;;;;;;;29.83;27.40;;;8.40;26.70;;;;;;5098449;28;20239;-58
2022/12/01 06:22:49;;;;;;;29.00;26.70;;;8.40;26.90;;;;;;5098959;28;20915;-59
2022/12/01 06:25:15;;;;;;;29.17;26.57;;;8.40;27.00;;;;;;5091973;28;20206;-58
2022/12/01 06:27:40;;;;;;;30.17;27.80;;;8.40;26.70;;;;;;5091873;28;20194;-58
2022/12/01 06:30:07;;;;;;;29.57;27.07;;;8.40;26.50;;;;;;5098650;28;20250;-58
2022/12/01 06:32:32;;;;;;;28.90;26.60;;;8.40;26.70;;;;;;5108829;28;20169;-58
2022/12/01 06:34:58;;;;;;;29.37;26.90;;;8.40;26.80;;;;;;5111267;28;20426;-56
2022/12/01 06:37:25;;;;;;;29.27;26.97;;;8.40;27.00;;;;;;5110979;28;20271;-55
2022/12/01 06:39:51;;;;;;;28.87;26.67;;;8.40;27.00;;;;;;5110034;28;20174;-54
2022/12/01 06:42:16;;;;;;;27.67;25.43;;;8.40;27.00;;;;;;5103983;28;20489;-53
2022/12/01 06:44:42;;;;;;;27.17;25.13;;;8.40;26.70;;;;;;5108013;28;20530;-54
2022/12/01 06:47:08;;;;;;;28.40;26.20;;;8.40;27.00;;;;;;5092421;28;20219;-56
2022/12/01 06:49:33;;;;;;;28.73;26.57;;;8.40;27.10;;;;;;5093739;28;20205;-55
2022/12/01 06:51:59;;;;;;;28.80;26.57;;;8.30;26.70;;;;;;5093067;28;20186;-55
2022/12/01 06:54:25;;;;;;;28.80;26.57;;;8.20;27.80;;;;;;5093653;28;20209;-55
2022/12/01 06:56:50;;;;;;;26.90;24.80;;;8.20;27.60;;;;;;5093607;28;20173;-54
2022/12/01 06:59:16;;;;;;;29.70;27.27;;;8.20;27.50;;;;;;5094568;28;20321;-53
2022/12/01 07:01:42;;;;;;;28.00;25.83;;;8.20;27.30;;;;;;5076387;28;20741;-51
2022/12/01 07:04:07;;;;;;;27.37;25.30;;;8.20;27.20;;;;;;5111736;28;20282;-52
2022/12/01 07:06:33;;;;;;;27.13;24.83;;;8.20;27.50;;;;;;5094405;28;20518;-50
2022/12/01 07:08:59;;;;;;;27.17;24.97;;;8.30;27.20;;;;;;5093601;28;20170;-52
2022/12/01 07:11:24;;;;;;;27.87;25.63;;;8.30;27.10;;;;;;5091962;28;20177;-52
2022/12/01 07:13:54;;;;;;;28.63;26.33;;;8.30;27.30;;;;;;5110511;28;20170;-49
2022/12/01 07:16:21;;;;;;;29.23;26.83;;;8.20;27.50;;;;;;5092665;28;20777;-53
2022/12/01 07:18:46;;;;;;;30.30;27.63;;;8.00;28.20;;;;;;5092218;28;20900;-51
2022/12/01 07:21:13;;;;;;;28.80;26.70;;;8.10;27.90;;;;;;5092007;28;20427;-48
2022/12/01 07:23:39;;;;;;;30.30;27.90;;;8.10;27.80;;;;;;5091487;28;20257;-56
2022/12/01 07:26:08;;;;;;;28.50;26.20;;;8.10;27.90;;;;;;5112226;28;20542;-53
2022/12/01 07:28:34;;;;;;;27.20;25.03;;;8.00;28.10;;;;;;5094125;28;20201;-54
2022/12/01 07:31:05;;;;;;;27.97;25.80;;;8.00;28.20;;;;;;5093688;28;20992;-49
2022/12/01 07:33:30;;;;;;;29.07;26.70;;;8.00;28.10;;;;;;5096178;28;20177;-49
2022/12/01 07:35:57;;;;;;;28.10;25.90;;;8.00;28.20;;;;;;5097219;28;20847;-49
2022/12/01 07:38:22;;;;;;;28.67;26.27;;;8.10;28.10;;;;;;5096916;28;20581;-54
2022/12/01 07:40:48;;;;;;;27.90;25.70;;;7.90;28.00;;;;;;5097443;28;20415;-55
2022/12/01 07:43:14;;;;;;;28.60;26.40;;;7.90;28.70;;;;;;5097870;28;20545;-54
2022/12/01 07:45:39;;;;;;;29.43;26.80;;;8.00;28.60;;;;;;5097242;28;20221;-56
2022/12/01 07:48:05;;;;;;;28.30;25.97;;;8.10;28.50;;;;;;5097101;28;20541;-56
2022/12/01 07:50:31;;;;;;;28.27;26.07;;;8.10;28.10;;;;;;5096510;28;20526;-55
2022/12/01 07:52:57;;;;;;;28.80;26.60;;;8.10;27.90;;;;;;5097492;28;20411;-54
2022/12/01 07:55:22;;;;;;;27.20;25.00;;;8.10;28.00;;;;;;5097829;28;20184;-55
2022/12/01 07:57:48;;;;;;;27.57;25.43;;;8.10;27.90;;;;;;5097153;28;20269;-56
2022/12/01 08:00:14;;;;;;;28.20;25.90;;;8.10;27.90;;;;;;5097035;28;20653;-55
2022/12/01 08:02:40;;;;;;;26.23;24.13;;;8.10;28.30;;;;;;5097071;28;20170;-55
2022/12/01 08:05:05;;;;;;;26.23;24.13;;;8.00;28.30;;;;;;5097116;28;20444;-56
2022/12/01 08:07:31;;;;;;;28.70;26.50;;;8.10;29.20;;;;;;5097595;28;20648;-51
2022/12/01 08:09:57;;;;;;;28.87;26.67;;;8.10;28.70;;;;;;5096239;28;20181;-54
2022/12/01 08:12:22;;;;;;;28.97;26.70;;;8.10;29.20;;;;;;5096374;28;20173;-55
2022/12/01 08:14:48;;;;;;;28.50;26.10;;;8.20;29.90;;;;;;5095968;28;20650;-53
2022/12/01 08:17:14;;;;;;;30.50;28.13;;;8.20;30.00;;;;;;5096823;28;20184;-52
2022/12/01 08:19:39;;;;;;;27.10;25.00;;;8.20;30.00;;;;;;5095389;28;20188;-58
2022/12/01 08:22:05;;;;;;;27.47;25.43;;;8.30;30.90;;;;;;5095939;28;20900;-49
2022/12/01 08:24:30;;;;;;;26.37;24.37;;;8.30;29.10;;;;;;5095234;28;20212;-49
2022/12/01 08:26:56;;;;;;;27.73;25.53;;;8.30;28.70;;;;;;5095313;28;20253;-50
2022/12/01 08:29:22;;;;;;;28.30;26.00;;;8.20;28.70;;;;;;5096611;28;20162;-49
2022/12/01 08:31:47;;;;;;;28.50;26.33;;;8.30;28.20;;;;;;5095324;28;20182;-49
2022/12/01 08:34:13;;;;;;;27.57;25.37;;;8.30;28.20;;;;;;5095660;28;20174;-48
2022/12/01 08:36:39;;;;;;;28.37;26.17;;;8.30;27.80;;;;;;5096013;28;20181;-50
2022/12/01 08:39:07;;;;;;;26.90;24.90;;;8.30;27.80;;;;;;5095268;28;20182;-53
2022/12/01 08:41:32;;;;;;;25.97;23.97;;;8.30;28.00;;;;;;5092698;28;20177;-53
2022/12/01 08:43:58;;;;;;;28.30;25.87;;;8.20;27.50;;;;;;5093820;28;20506;-52
2022/12/01 08:46:30;;;;;;;28.93;26.63;;;8.20;28.10;;;;;;5096184;28;20656;-52
2022/12/01 08:48:56;;;;;;;26.83;24.50;;;8.20;28.10;;;;;;5095372;28;20170;-52
2022/12/01 08:51:22;;;;;;;28.73;26.57;;;8.30;27.80;;;;;;5093758;28;20518;-50
2022/12/01 08:53:48;;;;;;;26.97;24.50;;;8.30;27.30;;;;;;5095445;28;20453;-50
2022/12/01 08:56:22;;;;;;;27.57;25.37;;;8.10;28.40;;;;;;5095798;28;20420;-53
2022/12/01 08:58:49;;;;;;;25.30;23.27;;;8.00;28.80;;;;;;5096602;28;20415;-55
2022/12/01 09:01:16;;;;;;;27.97;25.57;;;8.00;28.50;;;;;;5095497;28;20415;-51
2022/12/01 09:03:43;;;;;;;27.73;25.60;;;8.10;28.40;;;;;;5096500;28;20412;-49
2022/12/01 09:06:19;;;;;;;26.97;24.80;;;8.10;28.10;;;;;;5096090;28;20527;-48
2022/12/01 09:08:45;;;;;;;26.30;24.20;;;8.20;28.20;;;;;;5095778;28;20427;-53
2022/12/01 09:11:15;;;;;;;26.80;24.70;;;8.20;28.00;;;;;;5094492;28;20420;-53
2022/12/01 09:13:42;;;;;;;26.03;24.07;;;8.20;27.80;;;;;;5095638;28;20404;-49
2022/12/01 09:16:11;;;;;;;26.73;24.57;;;8.20;28.00;;;;;;5094438;28;21000;-48
2022/12/01 09:18:37;;;;;;;27.10;24.87;;;8.20;27.90;;;;;;5096116;28;20412;-51
2022/12/01 09:21:12;;;;;;;28.60;26.17;;;8.10;27.90;;;;;;5095285;28;20460;-50
2022/12/01 09:23:38;;;;;;;26.93;24.83;;;8.20;28.00;;;;;;5095094;28;20434;-51
2022/12/01 09:26:05;;;;;;;30.27;27.77;;;8.20;27.70;;;;;;5108536;28;20456;-50
2022/12/01 09:28:30;;;;;;;28.20;25.80;;;8.10;27.90;;;;;;5074616;28;20839;-54
2022/12/01 09:31:01;;;;;;;27.47;25.33;;;8.10;28.10;;;;;;5074311;28;20500;-54
2022/12/01 09:33:27;;;;;;;27.83;25.63;;;8.10;28.20;;;;;;5075780;28;20178;-55
2022/12/01 09:35:58;;;;;;;26.63;24.80;;;8.10;28.40;;;;;;5074638;28;20425;-52
2022/12/01 09:38:23;;;;;;;27.03;24.90;;;8.10;28.20;;;;;;5075456;28;20420;-54
2022/12/01 09:40:49;;;;;;;26.90;24.73;;;8.10;28.40;;;;;;5094857;28;20980;-54
2022/12/01 09:43:19;;;;;;;26.90;24.60;;;8.10;28.40;;;;;;5094886;28;20242;-54
2022/12/01 09:45:57;;;;;;;26.30;24.20;;;8.10;28.20;;;;;;5113125;28;20563;-51
2022/12/01 09:48:32;;;;;;;26.60;24.40;;;8.20;28.20;;;;;;5101679;28;20908;-51
2022/12/01 09:50:58;;;;;;;26.60;24.60;;;8.30;28.30;;;;;;5090735;28;20433;-50
2022/12/01 09:53:27;;;;;;;27.33;24.93;;;8.30;28.20;;;;;;5095322;28;20494;-50
2022/12/01 09:55:54;;;;;;;27.53;25.43;;;8.30;28.00;;;;;;5094949;28;20230;-49
2022/12/01 09:58:25;;;;;;;26.73;24.53;;;8.10;28.50;;;;;;5093254;28;20506;-50
2022/12/01 10:00:52;;;;;;;26.83;24.83;;;8.20;28.40;;;;;;5094673;28;20862;-50
2022/12/01 10:03:29;;;;;;;28.77;26.23;;;8.10;28.20;;;;;;5095086;28;20419;-53
2022/12/01 10:06:01;;;;;;;26.80;24.83;;;8.10;28.30;;;;;;5095089;28;20515;-52
2022/12/01 10:08:30;;;;;;;27.17;25.03;;;8.20;28.30;;;;;;5094852;28;20408;-52
2022/12/01 10:11:06;;;;;;;27.23;25.00;;;8.10;28.60;;;;;;5094250;28;20947;-50
2022/12/01 10:13:33;;;;;;;26.90;24.77;;;8.10;28.50;;;;;;5094847;28;20399;-52
2022/12/01 10:16:09;;;;;;;28.63;26.33;;;8.10;28.70;;;;;;5088263;28;20440;-51
2022/12/01 10:18:40;;;;;;;27.07;24.97;;;8.10;28.20;;;;;;5090698;28;20428;-52
2022/12/01 10:21:06;;;;;;;27.77;25.67;;;8.10;28.80;;;;;;5088441;28;20415;-50
2022/12/01 10:24:16;;;;;;;28.97;26.57;;;8.10;28.80;;;;;;5092713;28;20404;-52
2022/12/01 10:26:58;;;;;;;28.20;26.10;;;8.10;28.70;;;;;;5077986;28;20272;-53
2022/12/01 10:29:27;;;;;;;33.60;30.50;;;8.20;29.20;;;;;;5076557;28;20404;-52
2022/12/01 10:32:26;;;;;;;27.80;25.50;;;8.30;29.00;;;;;;5093096;28;20495;-52
2022/12/01 10:34:52;;;;;;;27.20;25.10;;;8.40;28.90;;;;;;5093393;28;20415;-52
2022/12/01 10:37:21;;;;;;;30.07;27.30;;;8.30;28.50;;;;;;5093991;28;20476;-50
2022/12/01 10:39:50;;;;;;;26.77;24.70;;;8.30;28.50;;;;;;5095020;28;20594;-54
2022/12/01 10:42:33;;;;;;;29.07;26.90;;;8.30;28.40;;;;;;5093919;28;20479;-54
2022/12/01 10:45:02;;;;;;;36.43;33.00;;;8.30;28.40;;;;;;5094612;28;20447;-55
2022/12/01 10:47:28;;;;;;;29.50;27.00;;;8.20;28.60;;;;;;5094393;28;20415;-53
2022/12/01 10:49:54;;;;;;;27.90;25.70;;;8.20;28.60;;;;;;5093526;28;20419;-56
2022/12/01 10:52:40;;;;;;;26.90;24.90;;;8.20;28.50;;;;;;5094526;28;20264;-53
2022/12/01 10:55:27;;;;;;;27.10;24.90;;;8.10;28.80;;;;;;5094471;28;20419;-55
2022/12/01 10:57:56;;;;;;;27.70;25.43;;;8.10;28.90;;;;;;5093992;28;20411;-54
2022/12/01 11:00:27;;;;;;;29.30;26.80;;;8.10;28.80;;;;;;5092806;28;20416;-55
2022/12/01 11:02:53;;;;;;;26.60;24.30;;;8.00;28.90;;;;;;5094224;28;20420;-54
2022/12/01 11:05:30;;;;;;;27.20;25.20;;;8.10;29.00;;;;;;5093763;28;20459;-54
2022/12/01 11:07:56;;;;;;;30.23;27.83;;;8.00;28.90;;;;;;5093778;28;20461;-53
2022/12/01 11:10:26;;;;;;;28.73;26.53;;;8.10;29.00;;;;;;5092532;28;20904;-53
2022/12/01 11:12:56;;;;;;;29.20;26.90;;;8.00;28.90;;;;;;5093462;28;20408;-48
2022/12/01 11:15:25;;;;;;;27.60;25.50;;;8.00;29.50;;;;;;5094274;28;20415;-48
2022/12/01 11:18:03;;;;;;;29.27;26.87;;;8.10;29.20;;;;;;5093621;28;20416;-48
2022/12/01 11:20:31;;;;;;;27.97;25.97;;;8.10;29.10;;;;;;5093436;28;20457;-52
2022/12/01 11:23:23;;;;;;;27.33;25.13;;;8.10;29.10;;;;;;5094204;28;20420;-48
2022/12/01 11:25:56;;;;;;;26.97;24.77;;;8.10;29.00;;;;;;5094106;28;20459;-49
2022/12/01 11:28:23;;;;;;;27.07;24.87;;;8.10;29.20;;;;;;5094012;28;20412;-48
2022/12/01 11:30:58;;;;;;;28.10;25.80;;;8.10;29.00;;;;;;5093600;28;20447;-48
2022/12/01 11:33:25;;;;;;;26.87;24.67;;;8.10;29.10;;;;;;5094189;28;20414;-49
2022/12/01 11:35:51;;;;;;;27.07;25.07;;;8.00;29.10;;;;;;5094109;28;20964;-49
2022/12/01 11:38:22;;;;;;;26.83;24.60;;;8.00;29.00;;;;;;5092744;28;20415;-48
2022/12/01 11:40:49;;;;;;;27.67;25.37;;;8.00;29.60;;;;;;5092768;28;20276;-48
2022/12/01 11:43:27;;;;;;;27.17;25.17;;;8.00;29.50;;;;;;5092740;28;20467;-47
2022/12/01 11:45:57;;;;;;;27.40;25.50;;;8.00;29.40;;;;;;5093109;28;20997;-52
2022/12/01 11:48:26;;;;;;;32.50;30.03;;;8.00;29.40;;;;;;5093902;28;20888;-53
2022/12/01 11:51:04;;;;;;;28.83;26.63;;;8.10;29.40;;;;;;5092134;28;20411;-53
2022/12/01 11:53:34;;;;;;;28.97;26.77;;;8.10;29.20;;;;;;5093336;28;20465;-52
2022/12/01 11:56:22;;;;;;;28.40;26.27;;;8.10;29.30;;;;;;5093163;28;20451;-50
2022/12/01 11:59:00;;;;;;;27.73;25.53;;;8.10;29.30;;;;;;5093119;28;20423;-51
2022/12/01 12:01:39;;;;;;;27.60;25.47;;;8.10;29.10;;;;;;5093242;28;20433;-54
2022/12/01 12:04:20;;;;;;;25.70;23.80;;;8.10;29.40;;;;;;5093125;28;20461;-52
2022/12/01 12:07:23;;;;;;;26.70;24.60;;;8.10;29.30;;;;;;5093923;28;20412;-55
2022/12/01 12:10:16;;;;;;;25.90;23.67;;;8.20;29.20;;;;;;5092226;28;20780;-56
2022/12/01 12:12:56;;;;;;;24.97;22.97;;;8.20;29.00;;;;;;5093757;28;20415;-54
2022/12/01 12:15:40;;;;;;;24.97;23.07;;;8.10;29.70;;;;;;5093197;28;20511;-55
2022/12/01 12:18:11;;;;;;;27.10;25.00;;;8.00;30.00;;;;;;5093231;28;20518;-54
2022/12/01 12:21:04;;;;;;;25.80;23.70;;;8.10;29.70;;;;;;5095089;28;20435;-54
2022/12/01 12:23:49;;;;;;;25.40;23.50;;;8.10;29.30;;;;;;5097391;28;20516;-55
2022/12/01 12:26:30;;;;;;;25.40;23.50;;;8.10;29.20;;;;;;5097339;28;20556;-55
2022/12/01 12:29:14;;;;;;;27.47;25.27;;;8.10;29.30;;;;;;5097054;28;20416;-55
2022/12/01 12:31:51;;;;;;;25.50;23.50;;;8.10;29.30;;;;;;5096655;28;20779;-53
2022/12/01 12:34:55;;;;;;;25.90;23.90;;;8.10;29.10;;;;;;5097207;28;20416;-54
2022/12/01 12:37:25;;;;;;;26.37;24.47;;;8.10;29.30;;;;;;5096438;28;20787;-56
2022/12/01 12:40:15;;;;;;;27.40;25.20;;;8.20;29.70;;;;;;5096733;28;20757;-56
2022/12/01 12:42:59;;;;;;;28.00;25.50;;;8.10;29.40;;;;;;5114421;28;20546;-53
2022/12/01 12:45:47;;;;;;;26.30;24.00;;;8.10;29.40;;;;;;5096862;28;20804;-53
2022/12/01 12:48:33;;;;;;;26.43;24.40;;;8.10;29.20;;;;;;5096705;28;20776;-55
2022/12/01 12:51:34;;;;;;;26.20;24.20;;;8.10;29.50;;;;;;5096076;28;20918;-55
2022/12/01 12:54:12;;;;;;;25.80;23.90;;;8.10;29.30;;;;;;5042584;28;20433;-55
2022/12/01 12:56:43;;;;;;;25.83;24.03;;;8.10;29.40;;;;;;5096104;28;20427;-55
2022/12/01 12:59:17;;;;;;;26.57;24.57;;;8.10;29.50;;;;;;5095783;28;20773;-54